S-y Atmosphere — ZCGY6 — position and weather

sailwx.info

Track history (hours):
 
Tides and Currents Weather Stations Pressure Air Temp Water Temp Dewpoint Dewpoint Depression Visibility Wind Speed Wind Dir Waves Ship Positions

S-y Atmosphere

Last reported at 2015-May-30 06:31 UTC. Time now 2015-May-30 06:35 UTC.
Position N 43°20' E 005°22'.

Length 53 m; draft 4 m.

Type: Sailing vessel. MMSI: 319726000.

Date/timePositionNaut miles runAvg speedWind from/ knotsBaromVisibWave heightAir tempDewpointWater temp
2015-May-30 06:31N 43°20' E 005°22'0 0.0
2015-May-30 05:33N 43°20' E 005°22'0 0.0
2015-May-30 04:33N 43°20' E 005°22'0 0.0
2015-May-30 03:33N 43°20' E 005°22'0 0.0
2015-May-30 02:33N 43°20' E 005°22'0 0.0
2015-May-30 01:33N 43°20' E 005°22'0 0.0
2015-May-30 00:33N 43°20' E 005°22'0 0.0
2015-May-29 23:33N 43°20' E 005°22'0 0.0
2015-May-29 22:32N 43°20' E 005°22'0 0.0
2015-May-29 21:33N 43°20' E 005°22'0 0.0
2015-May-29 20:33N 43°20' E 005°22'0 0.0
2015-May-29 19:32N 43°20' E 005°22'0 0.0
2015-May-29 13:33N 43°20' E 005°22'0 0.0
2015-May-29 12:33N 43°20' E 005°22'0 0.0
2015-May-29 11:33N 43°20' E 005°22'0 0.0
2015-May-29 10:30N 43°20' E 005°22'0 0.0
2015-May-29 09:33N 43°20' E 005°22'0 0.0
2015-May-29 08:28N 43°20' E 005°22'0 0.0
2015-May-29 07:33N 43°20' E 005°22'0 0.1
2015-May-29 06:33N 43°19' E 005°22'4 4.1
2015-May-29 05:33N 43°18' E 005°16'4410.1
2015-May-29 01:15N 42°43' E 004°40'7 9.3
2015-May-29 00:32N 42°38' E 004°34'9 9.6
2015-May-28 23:33N 42°30' E 004°26'10 9.8
2015-May-28 22:33N 42°23' E 004°18'13 9.6
2015-May-28 21:14N 42°13' E 004°08'8 9.7
2015-May-28 20:22N 42°06' E 004°01'8 9.9
2015-May-28 19:32N 41°60' E 003°54'10 9.9
2015-May-28 18:32N 41°52' E 003°45'78 9.7
2015-May-28 10:26N 40°49' E 002°42'910.0
2015-May-28 09:31N 40°43' E 002°34'1010.0
2015-May-28 08:28N 40°35' E 002°25'910.1
2015-May-28 07:33N 40°28' E 002°17'1010.0
2015-May-28 06:33N 40°20' E 002°10'10 9.8
2015-May-28 05:33N 40°12' E 002°02'9 9.0
2015-May-28 04:33N 40°05' E 001°54'9 9.2
2015-May-28 03:33N 39°58' E 001°47'10 9.4
2015-May-28 02:32N 39°50' E 001°39'189 9.4
2015-May-27 06:28N 37°17' W 000°43'238 9.1
2015-May-26 04:18N 35°60' W 005°23'  
2015-May-21 15:18N 37°39' W 024°29'811.1
2015-May-21 14:34N 37°39' W 024°39'1111.0
2015-May-21 13:33N 37°40' W 024°53'1111.2
2015-May-21 12:34N 37°40' W 025°07'10 9.9
2015-May-21 11:33N 37°40' W 025°20'1110.7
2015-May-21 10:33N 37°42' W 025°33'6 5.8
2015-May-21 09:33N 37°44' W 025°40'0 0.0
2015-May-21 08:33N 37°44' W 025°40'0 0.0
2015-May-21 07:33N 37°44' W 025°40'0 0.0
2015-May-21 06:33N 37°44' W 025°40'0 0.0
2015-May-21 05:33N 37°44' W 025°40'0 0.0
2015-May-21 04:33N 37°44' W 025°40'0 0.0
2015-May-21 03:33N 37°44' W 025°40'0 0.0
2015-May-21 02:33N 37°44' W 025°40'0 0.0
2015-May-21 01:33N 37°44' W 025°40'0 0.0
2015-May-21 00:33N 37°44' W 025°40'0 0.0
2015-May-20 23:33N 37°44' W 025°40'0 0.0
2015-May-20 22:33N 37°44' W 025°40'0 0.0
2015-May-20 21:33N 37°44' W 025°40'0 0.0
2015-May-20 20:33N 37°44' W 025°40'0 0.0
2015-May-20 19:33N 37°44' W 025°40'0 0.0
2015-May-20 18:33N 37°44' W 025°40'0 0.0
2015-May-20 17:33N 37°44' W 025°40'0 0.0
2015-May-20 16:33N 37°44' W 025°40'0 0.0
2015-May-20 15:33N 37°44' W 025°40'0 0.0
2015-May-20 14:33N 37°44' W 025°40'0 0.0
2015-May-20 13:33N 37°44' W 025°40'0 0.0
2015-May-20 12:33N 37°44' W 025°40'0 0.0
2015-May-20 11:33N 37°44' W 025°40'0 0.0
2015-May-20 10:33N 37°44' W 025°40'0 0.0
2015-May-20 09:33N 37°44' W 025°40'0 0.0
2015-May-20 08:33N 37°44' W 025°40'0 0.0
2015-May-20 07:33N 37°44' W 025°40'0 0.0
2015-May-20 06:33N 37°44' W 025°40'0 0.0
2015-May-20 05:33N 37°44' W 025°40'  
Track history (hours):
 
Tides and Currents Weather Stations Pressure Air Temp Water Temp Dewpoint Dewpoint Depression Visibility Wind Speed Wind Dir Waves Ship Positions

S-y Atmosphere

Last reported at 2015-May-30 06:31 UTC. Time now 2015-May-30 06:35 UTC.
Position N 43°20' E 005°22'.

Length 53 m; draft 4 m.

Type: Sailing vessel. MMSI: 319726000.

Date/timePositionNaut miles runAvg speedWind from/ knotsBaromVisibWave heightAir tempDewpointWater temp
2015-May-30 06:31N 43°20' E 005°22'0 0.0
2015-May-30 05:33N 43°20' E 005°22'0 0.0
2015-May-30 04:33N 43°20' E 005°22'0 0.0
2015-May-30 03:33N 43°20' E 005°22'0 0.0
2015-May-30 02:33N 43°20' E 005°22'0 0.0
2015-May-30 01:33N 43°20' E 005°22'0 0.0
2015-May-30 00:33N 43°20' E 005°22'0 0.0
2015-May-29 23:33N 43°20' E 005°22'0 0.0
2015-May-29 22:32N 43°20' E 005°22'0 0.0
2015-May-29 21:33N 43°20' E 005°22'0 0.0
2015-May-29 20:33N 43°20' E 005°22'0 0.0
2015-May-29 19:32N 43°20' E 005°22'0 0.0
2015-May-29 13:33N 43°20' E 005°22'0 0.0
2015-May-29 12:33N 43°20' E 005°22'0 0.0
2015-May-29 11:33N 43°20' E 005°22'0 0.0
2015-May-29 10:30N 43°20' E 005°22'0 0.0
2015-May-29 09:33N 43°20' E 005°22'0 0.0
2015-May-29 08:28N 43°20' E 005°22'0 0.0
2015-May-29 07:33N 43°20' E 005°22'0 0.1
2015-May-29 06:33N 43°19' E 005°22'4 4.1
2015-May-29 05:33N 43°18' E 005°16'4410.1
2015-May-29 01:15N 42°43' E 004°40'7 9.3
2015-May-29 00:32N 42°38' E 004°34'9 9.6
2015-May-28 23:33N 42°30' E 004°26'10 9.8
2015-May-28 22:33N 42°23' E 004°18'13 9.6
2015-May-28 21:14N 42°13' E 004°08'8 9.7
2015-May-28 20:22N 42°06' E 004°01'8 9.9
2015-May-28 19:32N 41°60' E 003°54'10 9.9
2015-May-28 18:32N 41°52' E 003°45'78 9.7
2015-May-28 10:26N 40°49' E 002°42'910.0
2015-May-28 09:31N 40°43' E 002°34'1010.0
2015-May-28 08:28N 40°35' E 002°25'910.1
2015-May-28 07:33N 40°28' E 002°17'1010.0
2015-May-28 06:33N 40°20' E 002°10'10 9.8
2015-May-28 05:33N 40°12' E 002°02'9 9.0
2015-May-28 04:33N 40°05' E 001°54'9 9.2
2015-May-28 03:33N 39°58' E 001°47'10 9.4
2015-May-28 02:32N 39°50' E 001°39'189 9.4
2015-May-27 06:28N 37°17' W 000°43'238 9.1
2015-May-26 04:18N 35°60' W 005°23'  
2015-May-21 15:18N 37°39' W 024°29'811.1
2015-May-21 14:34N 37°39' W 024°39'1111.0
2015-May-21 13:33N 37°40' W 024°53'1111.2
2015-May-21 12:34N 37°40' W 025°07'10 9.9
2015-May-21 11:33N 37°40' W 025°20'1110.7
2015-May-21 10:33N 37°42' W 025°33'6 5.8
2015-May-21 09:33N 37°44' W 025°40'0 0.0
2015-May-21 08:33N 37°44' W 025°40'0 0.0
2015-May-21 07:33N 37°44' W 025°40'0 0.0
2015-May-21 06:33N 37°44' W 025°40'0 0.0
2015-May-21 05:33N 37°44' W 025°40'0 0.0
2015-May-21 04:33N 37°44' W 025°40'0 0.0
2015-May-21 03:33N 37°44' W 025°40'0 0.0
2015-May-21 02:33N 37°44' W 025°40'0 0.0
2015-May-21 01:33N 37°44' W 025°40'0 0.0
2015-May-21 00:33N 37°44' W 025°40'0 0.0
2015-May-20 23:33N 37°44' W 025°40'0 0.0
2015-May-20 22:33N 37°44' W 025°40'0 0.0
2015-May-20 21:33N 37°44' W 025°40'0 0.0
2015-May-20 20:33N 37°44' W 025°40'0 0.0
2015-May-20 19:33N 37°44' W 025°40'0 0.0
2015-May-20 18:33N 37°44' W 025°40'0 0.0
2015-May-20 17:33N 37°44' W 025°40'0 0.0
2015-May-20 16:33N 37°44' W 025°40'0 0.0
2015-May-20 15:33N 37°44' W 025°40'0 0.0
2015-May-20 14:33N 37°44' W 025°40'0 0.0
2015-May-20 13:33N 37°44' W 025°40'0 0.0
2015-May-20 12:33N 37°44' W 025°40'0 0.0
2015-May-20 11:33N 37°44' W 025°40'0 0.0
2015-May-20 10:33N 37°44' W 025°40'0 0.0
2015-May-20 09:33N 37°44' W 025°40'0 0.0
2015-May-20 08:33N 37°44' W 025°40'0 0.0
2015-May-20 07:33N 37°44' W 025°40'0 0.0
2015-May-20 06:33N 37°44' W 025°40'0 0.0
2015-May-20 05:33N 37°44' W 025°40'  

Dump ship's entire track history